Balsam, Minnesota
Current Conditions -  °F | °C
As of 4:27 AM on Tuesday 27 Jan 2015 (Local Time) from KHZX Reporting Station
Overcast Overcast  
Wind Chill: 30°   Ceiling: 1400
Heat Index: 30°   Visibility: 10mi
Dew Point: 27°   Wind: 3mph
Humidity: 86%   Direction: 340°NNW
Pressure: 30.06"   Gusts: NA
Location:  46.6404°N, 93.1222°W
Report Text: KHZX 271027Z AUTO 34003KT 10SM OVC014 M01/M03 A3006 RMK AO2
Loading
Personal Weather Stations






























Interactive Weather Map New forecast layout! Learn more

10-Day Weather Forecast

Advertisements
Track Severe Weather on mobile